Aviation Digital Data Service (ADDS)

Output produced by METARs form (1211 UTC 24 February 2018)
found at http://aviationweather.gov/adds/metars/
 
EFSI 241150Z AUTO 01004KT 330V060 9999 FEW007 M12/M16 Q1040
EFSI 241120Z AUTO 36005KT 340V050 CAVOK M13/M16 Q1040
EFSI 241050Z AUTO 01003KT CAVOK M13/M16 Q1040
EFSI 241020Z AUTO 01003KT CAVOK M14/M16 Q1040
EFSI 240950Z AUTO 36002KT CAVOK M15/M17 Q1040
EFSI 240920Z AUTO 02002KT 9999 ////// M15/M17 Q1041
EFSI 240850Z AUTO 36001KT 9999 ////// M17/M20 Q1040
EFSI 240820Z AUTO 35001KT 9999 ////// M19/M21 Q1040
EFSI 240750Z AUTO 29001KT 9999 ////// M23/M25 Q1040
EFSI 240720Z AUTO 30003KT 9999 ////// M24/M27 Q1040
EFSI 240650Z AUTO 00000KT 9999 ////// M26/M29 Q1040
EFSI 240620Z AUTO 00000KT 9999 ////// M27/M30 Q1040
EFSI 240550Z AUTO 00000KT 9999 ////// M27/M30 Q1040
EFSI 240520Z AUTO 31001KT 9999 ////// M27/M30 Q1039
EFSI 240450Z AUTO 00000KT 9999 ////// M27/M29 Q1039
EFSI 240420Z AUTO 32001KT 9999 ////// M27/M30 Q1039
EFSI 240350Z AUTO 00000KT 9999 ////// M27/M29 Q1039
EFSI 240320Z AUTO 00000KT 9999 ////// M27/M30 Q1038
EFSI 240250Z AUTO 32001KT 9999 ////// M26/M29 Q1038
EFSI 240220Z AUTO 00000KT 9999 ////// M26/M29 Q1038
EFSI 240150Z AUTO 31001KT 9999 ////// M26/M28 Q1038
EFSI 240120Z AUTO 00000KT 9999 ////// M26/M28 Q1038
EFSI 240050Z AUTO 30001KT 9999 ////// M25/M28 Q1038
EFSI 240020Z AUTO 30001KT 9999 ////// M25/M27 Q1038
EFSI 232350Z AUTO 00000KT 9999 ////// M25/M28 Q1037
EFSI 232320Z AUTO 00000KT 9999 ////// M25/M27 Q1037
EFSI 232250Z AUTO 30001KT 9999 ////// M24/M26 Q1037
EFSI 232220Z AUTO 00000KT 9999 ////// M24/M27 Q1037
EFSI 232150Z AUTO 02002KT 9999 ////// M23/M25 Q1036
EFSI 232120Z AUTO 30001KT 9999 ////// M24/M26 Q1036
EFSI 232050Z AUTO 31002KT 9999 ////// M23/M26 Q1036
EFSI 232020Z AUTO 00000KT 9999 ////// M23/M25 Q1035
EFSI 231950Z AUTO 36002KT 9999 ////// M22/M24 Q1035
EFSI 231920Z AUTO 00000KT 9999 ////// M22/M24 Q1035
EFSI 231850Z AUTO 33001KT 9999 ////// M20/M22 Q1035
EFSI 231820Z AUTO 34002KT CAVOK M20/M21 Q1034
EFSI 231750Z AUTO 36001KT CAVOK M20/M22 Q1034
EFSI 231720Z AUTO 34001KT CAVOK M19/M20 Q1034
EFSI 231650Z AUTO 01002KT CAVOK M16/M17 Q1034
EFSI 231620Z AUTO 36002KT CAVOK M15/M17 Q1033
EFSI 231550Z AUTO 32004KT CAVOK M14/M16 Q1033
EFSI 231520Z AUTO 01003KT CAVOK M12/M15 Q1033
EFSI 231450Z AUTO 01003KT CAVOK M11/M15 Q1032
EFSI 231420Z AUTO 01004KT 340V040 CAVOK M11/M15 Q1032
EFSI 231350Z AUTO 01004KT 350V050 CAVOK M11/M15 Q1032
EFSI 231320Z AUTO 03005KT 360V070 CAVOK M11/M15 Q1032
EFSI 231250Z AUTO 01004KT 340V050 CAVOK M11/M15 Q1031
EFSI 231220Z AUTO 35005KT 300V040 CAVOK M11/M15 Q1031
EFSI 231150Z AUTO 33004KT 300V050 CAVOK M12/M15 Q1031
EFSI 231120Z AUTO 32005KT CAVOK M13/M15 Q1031
EFSI 231050Z AUTO 28001KT 9999 -SN FEW001 M12/M15 Q1031
EFSI 231020Z AUTO 00000KT 0500 SN BKN003 OVC005 M12/M14 Q1030
EFSI 230950Z AUTO 04002KT 1800 SN OVC004 M15/M16 Q1030
EFSI 230920Z AUTO 02004KT 340V050 6000 -SHSN OVC004 M15/M17 Q1030
EFSI 230850Z AUTO 29001KT 1500 -SHSN ////// M17/M19 Q1030
EFSI 230820Z AUTO 06001KT 0800 SHSN ////// M17/M19 Q1029
EFSI 230750Z AUTO 34001KT 1500 -SHSN ////// M19/M21 Q1029
EFSI 230720Z AUTO 27002KT 9999 ////// M22/M25 Q1029
EFSI 230650Z AUTO 32001KT 9000 -SHSN ////// M20/M23 Q1029
EFSI 230620Z AUTO 00000KT 5000 -SN ////// M21/M23 Q1028
EFSI 230550Z AUTO 36002KT 9999 ////// M20/M22 Q1028
EFSI 230520Z AUTO 36001KT 9999 ////// M22/M24 Q1028
EFSI 230450Z AUTO 35002KT 9999 ////// M22/M24 Q1027
EFSI 230420Z AUTO 35001KT CAVOK M20/M22 Q1027
EFSI 230350Z AUTO 31001KT CAVOK M21/M23 Q1027
EFSI 230320Z AUTO 36001KT CAVOK M20/M22 Q1027
EFSI 230250Z AUTO 00000KT CAVOK M20/M22 Q1027
EFSI 230220Z AUTO 35001KT 9999 FEW001 M18/M20 Q1027
EFSI 230150Z AUTO 00000KT 2400 -SN FEW007 SCT015 BKN032 OVC037 M16/M18 Q1027
EFSI 230120Z AUTO 00000KT 1900 -SN OVC034 M15/M17 Q1027
EFSI 230050Z AUTO 08001KT 6000 -SN BKN036 OVC050 M15/M17 Q1026
EFSI 230020Z AUTO 00000KT 4900 -SN FEW049 OVC070 M15/M16 Q1026